createdAt,value
2016-10-10T00:00:36.807Z,1009.69
2016-10-10T00:01:17.462Z,1009.71
2016-10-10T00:01:58.161Z,1009.68
2016-10-10T00:02:38.837Z,1009.68
2016-10-10T00:03:19.493Z,1009.67
2016-10-10T00:04:00.178Z,1009.69
2016-10-10T00:04:40.882Z,1009.66
2016-10-10T00:05:21.586Z,1009.64
2016-10-10T00:06:02.284Z,1009.63
2016-10-10T00:06:42.926Z,1009.67
2016-10-10T00:07:23.622Z,1009.69
2016-10-10T00:08:04.288Z,1009.69
2016-10-10T00:08:44.971Z,1009.67
2016-10-10T00:09:25.684Z,1009.67
2016-10-10T00:10:06.382Z,1009.7
2016-10-10T00:10:47.077Z,1009.71
2016-10-10T00:11:27.810Z,1009.66
2016-10-10T00:12:08.499Z,1009.67
2016-10-10T00:12:49.195Z,1009.66
2016-10-10T00:13:29.855Z,1009.67
2016-10-10T00:14:10.619Z,1009.66
2016-10-10T00:14:51.323Z,1009.67
2016-10-10T00:15:32.019Z,1009.66
2016-10-10T00:16:12.709Z,1009.73
2016-10-10T00:16:53.393Z,1009.71
2016-10-10T00:17:34.069Z,1009.7
2016-10-10T00:18:14.755Z,1009.69
2016-10-10T00:18:55.450Z,1009.71
2016-10-10T00:19:36.154Z,1009.71
2016-10-10T00:20:16.821Z,1009.71
2016-10-10T00:20:57.549Z,1009.74
2016-10-10T00:21:38.262Z,1009.71
2016-10-10T00:22:18.945Z,1009.69
2016-10-10T00:22:59.649Z,1009.72
2016-10-10T00:23:40.277Z,1009.74
2016-10-10T00:24:20.989Z,1009.72
2016-10-10T00:25:01.663Z,1009.72
2016-10-10T00:25:42.367Z,1009.74
2016-10-10T00:26:23.068Z,1009.73
2016-10-10T00:27:03.729Z,1009.75
2016-10-10T00:27:44.415Z,1009.7
2016-10-10T00:28:25.156Z,1009.69
2016-10-10T00:29:05.830Z,1009.65
2016-10-10T00:29:46.516Z,1009.69
2016-10-10T00:30:27.164Z,1009.69
2016-10-10T00:31:07.889Z,1009.72
2016-10-10T00:31:48.568Z,1009.73
2016-10-10T00:32:29.238Z,1009.73
2016-10-10T00:33:10.659Z,1009.73
2016-10-10T00:33:50.540Z,1009.71
2016-10-10T00:34:31.211Z,1009.68
2016-10-10T00:35:11.878Z,1009.74
2016-10-10T00:35:52.555Z,1009.74
2016-10-10T00:36:33.264Z,1009.74
2016-10-10T00:37:13.921Z,1009.71
2016-10-10T00:37:54.616Z,1009.68
2016-10-10T00:38:35.308Z,1009.72
2016-10-10T00:39:15.942Z,1009.71
2016-10-10T00:39:56.681Z,1009.69
2016-10-10T00:40:37.316Z,1009.74
2016-10-10T00:41:18.041Z,1009.71
2016-10-10T00:41:58.729Z,1009.73
2016-10-10T00:42:39.424Z,1009.73
2016-10-10T00:43:20.100Z,1009.75
2016-10-10T00:44:00.749Z,1009.73
2016-10-10T00:44:41.459Z,1009.77
2016-10-10T00:45:22.128Z,1009.7
2016-10-10T00:46:02.814Z,1009.73
2016-10-10T00:46:43.501Z,1009.72
2016-10-10T00:47:24.166Z,1009.7
2016-10-10T00:48:04.864Z,1009.67
2016-10-10T00:48:45.557Z,1009.66
2016-10-10T00:49:26.258Z,1009.64
2016-10-10T00:50:06.957Z,1009.64
2016-10-10T00:50:47.657Z,1009.64
2016-10-10T00:51:28.314Z,1009.6
2016-10-10T00:52:08.948Z,1009.62
2016-10-10T00:52:49.633Z,1009.61
2016-10-10T00:53:30.350Z,1009.62
2016-10-10T00:54:11.088Z,1009.61
2016-10-10T00:54:51.756Z,1009.6
2016-10-10T00:55:32.492Z,1009.61
2016-10-10T00:56:13.242Z,1009.56
2016-10-10T00:56:53.902Z,1009.56
2016-10-10T00:57:34.618Z,1009.54
2016-10-10T00:58:15.309Z,1009.56
2016-10-10T00:58:56.022Z,1009.57
2016-10-10T00:59:36.665Z,1009.56
2016-10-10T01:00:17.335Z,1009.57
2016-10-10T01:00:58.015Z,1009.58
2016-10-10T01:01:38.684Z,1009.62
2016-10-10T01:02:19.364Z,1009.58
2016-10-10T01:03:00.029Z,1009.56
2016-10-10T01:03:40.708Z,1009.58
2016-10-10T01:04:21.384Z,1009.62
2016-10-10T01:05:02.075Z,1009.6
2016-10-10T01:05:42.732Z,1009.6
2016-10-10T01:06:23.411Z,1009.6
2016-10-10T01:07:04.082Z,1009.6
2016-10-10T01:07:44.755Z,1009.64
2016-10-10T01:08:25.463Z,1009.62
2016-10-10T01:09:06.158Z,1009.62
2016-10-10T01:09:46.888Z,1009.63
2016-10-10T01:10:27.596Z,1009.62
2016-10-10T01:11:08.239Z,1009.62
2016-10-10T01:11:48.910Z,1009.65
2016-10-10T01:12:29.579Z,1009.66
2016-10-10T01:13:10.252Z,1009.66
2016-10-10T01:13:50.942Z,1009.63
2016-10-10T01:14:31.638Z,1009.64
2016-10-10T01:15:12.291Z,1009.63
2016-10-10T01:15:52.988Z,1009.62
2016-10-10T01:16:33.662Z,1009.59
2016-10-10T01:17:15.200Z,1009.64
2016-10-10T01:17:55.059Z,1009.59
2016-10-10T01:18:35.737Z,1009.61
2016-10-10T01:19:16.408Z,1009.58
2016-10-10T01:19:57.132Z,1009.58
2016-10-10T01:20:37.837Z,1009.54
2016-10-10T01:21:18.493Z,1009.59
2016-10-10T01:21:59.157Z,1009.58
2016-10-10T01:22:39.862Z,1009.58
2016-10-10T01:23:20.530Z,1009.56
2016-10-10T01:24:01.225Z,1009.57
2016-10-10T01:24:41.938Z,1009.54
2016-10-10T01:25:22.604Z,1009.56
2016-10-10T01:26:03.318Z,1009.54
2016-10-10T01:26:43.988Z,1009.52
2016-10-10T01:27:24.718Z,1009.54
2016-10-10T01:28:05.366Z,1009.56
2016-10-10T01:28:46.024Z,1009.54
2016-10-10T01:29:26.685Z,1009.52
2016-10-10T01:30:07.388Z,1009.5
2016-10-10T01:30:48.075Z,1009.47
2016-10-10T01:31:28.757Z,1009.52
2016-10-10T01:32:09.426Z,1009.49
2016-10-10T01:32:50.132Z,1009.49
2016-10-10T01:33:30.827Z,1009.5
2016-10-10T01:34:11.532Z,1009.48
2016-10-10T01:34:52.205Z,1009.46
2016-10-10T01:35:32.856Z,1009.48
2016-10-10T01:36:13.524Z,1009.46
2016-10-10T01:36:54.208Z,1009.45
2016-10-10T01:37:34.864Z,1009.46
2016-10-10T01:38:15.511Z,1009.44
2016-10-10T01:38:56.206Z,1009.41
2016-10-10T01:39:36.872Z,1009.39
2016-10-10T01:40:17.577Z,1009.41
2016-10-10T01:40:58.201Z,1009.37
2016-10-10T01:41:38.891Z,1009.39
2016-10-10T01:42:19.547Z,1009.38
2016-10-10T01:43:00.261Z,1009.41
2016-10-10T01:43:40.957Z,1009.4
2016-10-10T01:44:21.630Z,1009.42
2016-10-10T01:45:02.334Z,1009.4
2016-10-10T01:45:43.001Z,1009.38
2016-10-10T01:46:23.702Z,1009.36
2016-10-10T01:47:04.370Z,1009.38
2016-10-10T01:47:45.113Z,1009.39
2016-10-10T01:48:25.816Z,1009.36
2016-10-10T01:49:06.519Z,1009.33
2016-10-10T01:49:47.220Z,1009.33
2016-10-10T01:50:27.879Z,1009.27
2016-10-10T01:51:08.524Z,1009.29
2016-10-10T01:51:49.230Z,1009.26
2016-10-10T01:52:29.926Z,1009.2
2016-10-10T01:53:10.583Z,1009.19
2016-10-10T01:53:51.278Z,1009.21
2016-10-10T01:54:31.939Z,1009.19
2016-10-10T01:55:12.601Z,1009.15
2016-10-10T01:55:53.330Z,1009.17
2016-10-10T01:56:33.997Z,1009.17
2016-10-10T01:57:14.639Z,1009.18
2016-10-10T01:57:55.375Z,1009.19
2016-10-10T01:58:36.075Z,1009.19
2016-10-10T01:59:16.790Z,1009.16
2016-10-10T01:59:57.519Z,1009.16
2016-10-10T02:00:38.160Z,1009.15
2016-10-10T02:01:18.857Z,1009.19
2016-10-10T02:01:59.587Z,1009.14
2016-10-10T02:02:40.287Z,1009.15
2016-10-10T02:03:21.012Z,1009.14
2016-10-10T02:04:01.674Z,1009.11
2016-10-10T02:04:42.359Z,1009.1
2016-10-10T02:05:23.062Z,1009.08
2016-10-10T02:06:03.720Z,1009.07
2016-10-10T02:06:44.379Z,1009.03
2016-10-10T02:07:25.078Z,1009.03
2016-10-10T02:08:05.758Z,1009.01
2016-10-10T02:08:46.409Z,1008.94
2016-10-10T02:09:27.148Z,1008.98
2016-10-10T02:10:07.802Z,1008.91
2016-10-10T02:10:48.489Z,1008.92
2016-10-10T02:11:29.103Z,1008.92
2016-10-10T02:12:09.755Z,1008.9
2016-10-10T02:12:50.461Z,1008.88
2016-10-10T02:13:31.194Z,1008.87
2016-10-10T02:14:11.886Z,1008.85
2016-10-10T02:14:52.541Z,1008.85
2016-10-10T02:15:33.241Z,1008.85
2016-10-10T02:16:13.902Z,1008.84
2016-10-10T02:16:54.635Z,1008.84
2016-10-10T02:17:35.328Z,1008.85
2016-10-10T02:18:16.025Z,1008.83
2016-10-10T02:18:56.706Z,1008.84
2016-10-10T02:19:37.421Z,1008.85
2016-10-10T02:20:18.097Z,1008.84
2016-10-10T02:20:58.778Z,1008.82
2016-10-10T02:21:39.518Z,1008.81
2016-10-10T02:22:20.208Z,1008.82
2016-10-10T02:23:00.925Z,1008.82
2016-10-10T02:23:41.578Z,1008.84
2016-10-10T02:24:22.266Z,1008.85
2016-10-10T02:25:02.933Z,1008.87
2016-10-10T02:25:43.587Z,1008.83
2016-10-10T02:26:24.310Z,1008.8
2016-10-10T02:27:05.027Z,1008.83
2016-10-10T02:27:45.707Z,1008.82
2016-10-10T02:28:26.389Z,1008.82
2016-10-10T02:29:07.035Z,1008.81
2016-10-10T02:29:47.726Z,1008.82
2016-10-10T02:30:28.416Z,1008.79
2016-10-10T02:31:09.081Z,1008.76
2016-10-10T02:31:49.797Z,1008.7
2016-10-10T02:32:30.469Z,1008.69
2016-10-10T02:33:11.142Z,1008.69
2016-10-10T02:33:51.783Z,1008.69
2016-10-10T02:34:32.464Z,1008.66
2016-10-10T02:35:13.174Z,1008.65
2016-10-10T02:35:53.874Z,1008.64
2016-10-10T02:36:34.502Z,1008.64
2016-10-10T02:37:15.185Z,1008.62
2016-10-10T02:37:55.847Z,1008.62
2016-10-10T02:38:36.537Z,1008.65
2016-10-10T02:39:17.269Z,1008.66
2016-10-10T02:39:57.914Z,1008.64
2016-10-10T02:40:38.599Z,1008.66
2016-10-10T02:41:19.306Z,1008.66
2016-10-10T02:42:00.003Z,1008.67
2016-10-10T02:42:40.741Z,1008.66
2016-10-10T02:43:21.400Z,1008.66
2016-10-10T02:44:02.060Z,1008.67
2016-10-10T02:44:42.732Z,1008.64
2016-10-10T02:45:23.481Z,1008.67
2016-10-10T02:46:04.179Z,1008.69
2016-10-10T02:46:44.854Z,1008.72
2016-10-10T02:47:25.587Z,1008.7
2016-10-10T02:48:06.273Z,1008.75
2016-10-10T02:48:46.970Z,1008.71
2016-10-10T02:49:27.676Z,1008.74
2016-10-10T02:50:08.341Z,1008.74
2016-10-10T02:50:49.003Z,1008.78
2016-10-10T02:51:29.687Z,1008.8
2016-10-10T02:52:10.423Z,1008.81
2016-10-10T02:52:51.092Z,1008.78
2016-10-10T02:53:31.818Z,1008.81
2016-10-10T02:54:12.526Z,1008.79
2016-10-10T02:54:53.231Z,1008.82
2016-10-10T02:55:33.888Z,1008.81
2016-10-10T02:56:14.584Z,1008.83
2016-10-10T02:56:55.255Z,1008.84
2016-10-10T02:57:35.960Z,1008.88
2016-10-10T02:58:16.593Z,1008.85
2016-10-10T02:58:57.260Z,1008.86
2016-10-10T02:59:37.966Z,1008.85
2016-10-10T03:00:18.672Z,1008.85
2016-10-10T03:00:59.334Z,1008.89
2016-10-10T03:01:40.045Z,1008.86
2016-10-10T03:02:20.737Z,1008.83
2016-10-10T03:03:01.414Z,1008.85
2016-10-10T03:03:42.133Z,1008.84
2016-10-10T03:04:22.803Z,1008.86
2016-10-10T03:05:03.487Z,1008.86
2016-10-10T03:05:44.187Z,1008.92
2016-10-10T03:06:24.892Z,1008.9
2016-10-10T03:07:05.606Z,1008.99
2016-10-10T03:07:46.272Z,1008.93
2016-10-10T03:08:26.939Z,1008.97
2016-10-10T03:09:07.601Z,1009.01
2016-10-10T03:09:48.303Z,1009.03
2016-10-10T03:10:29.003Z,1009.03
2016-10-10T03:11:09.703Z,1009.04
2016-10-10T03:11:50.380Z,1008.98
2016-10-10T03:12:31.049Z,1009.04
2016-10-10T03:13:11.749Z,1009.03
2016-10-10T03:13:52.444Z,1009.05
2016-10-10T03:14:33.092Z,1009.05
2016-10-10T03:15:13.758Z,1009.05
2016-10-10T03:15:54.424Z,1009.08
2016-10-10T03:16:35.084Z,1009.1
2016-10-10T03:17:15.782Z,1009.07
2016-10-10T03:17:56.419Z,1009.04
2016-10-10T03:18:37.151Z,1009.04
2016-10-10T03:19:17.873Z,1009.05
2016-10-10T03:19:58.561Z,1009.03
2016-10-10T03:20:39.260Z,1009.03
2016-10-10T03:21:19.887Z,1009.02
2016-10-10T03:22:00.549Z,1008.98
2016-10-10T03:22:41.223Z,1008.99
2016-10-10T03:23:21.900Z,1008.98
2016-10-10T03:24:02.582Z,1008.98
2016-10-10T03:24:43.236Z,1008.95
2016-10-10T03:25:23.968Z,1008.95
2016-10-10T03:26:04.659Z,1008.95
2016-10-10T03:26:45.327Z,1008.94
2016-10-10T03:27:26.018Z,1008.92
2016-10-10T03:28:06.722Z,1008.89
2016-10-10T03:28:47.432Z,1008.91
2016-10-10T03:29:28.136Z,1008.92
2016-10-10T03:30:08.795Z,1008.91
2016-10-10T03:30:49.503Z,1008.95
2016-10-10T03:31:30.153Z,1008.93
2016-10-10T03:32:10.813Z,1008.91
2016-10-10T03:32:51.523Z,1008.87
2016-10-10T03:33:32.226Z,1008.86
2016-10-10T03:34:12.950Z,1008.8
2016-10-10T03:34:53.620Z,1008.83
2016-10-10T03:35:34.311Z,1008.82
2016-10-10T03:36:15.010Z,1008.81
2016-10-10T03:36:55.706Z,1008.8
2016-10-10T03:37:36.422Z,1008.81
2016-10-10T03:38:17.111Z,1008.81
2016-10-10T03:38:57.776Z,1008.78
2016-10-10T03:39:38.483Z,1008.85
2016-10-10T03:40:19.214Z,1008.84
2016-10-10T03:40:59.903Z,1008.85
2016-10-10T03:41:40.597Z,1008.85
2016-10-10T03:42:21.299Z,1008.89
2016-10-10T03:43:01.921Z,1008.83
2016-10-10T03:43:42.615Z,1008.83
2016-10-10T03:44:23.294Z,1008.83
2016-10-10T03:45:03.966Z,1008.84
2016-10-10T03:45:44.656Z,1008.82
2016-10-10T03:46:25.327Z,1008.81
2016-10-10T03:47:06.028Z,1008.79
2016-10-10T03:47:46.711Z,1008.82
2016-10-10T03:48:27.420Z,1008.86
2016-10-10T03:49:08.113Z,1008.9
2016-10-10T03:49:48.824Z,1008.85
2016-10-10T03:50:29.493Z,1008.89
2016-10-10T03:51:10.156Z,1008.82
2016-10-10T03:51:50.883Z,1008.83
2016-10-10T03:52:31.560Z,1008.82
2016-10-10T03:53:12.238Z,1008.78
2016-10-10T03:53:52.945Z,1008.78
2016-10-10T03:54:33.594Z,1008.77
2016-10-10T03:55:14.291Z,1008.81
2016-10-10T03:55:54.957Z,1008.79
2016-10-10T03:56:35.689Z,1008.77
2016-10-10T03:57:16.366Z,1008.77
2016-10-10T03:57:57.020Z,1008.81
2016-10-10T03:58:37.741Z,1008.81
2016-10-10T03:59:18.409Z,1008.79
2016-10-10T03:59:59.131Z,1008.76
2016-10-10T04:00:39.825Z,1008.77
2016-10-10T04:01:20.500Z,1008.77
2016-10-10T04:02:01.159Z,1008.74
2016-10-10T04:02:41.889Z,1008.76
2016-10-10T04:03:22.602Z,1008.73
2016-10-10T04:04:03.304Z,1008.72
2016-10-10T04:04:43.975Z,1008.75
2016-10-10T04:05:24.688Z,1008.71
2016-10-10T04:06:05.381Z,1008.71
2016-10-10T04:06:46.070Z,1008.72
2016-10-10T04:07:26.739Z,1008.69
2016-10-10T04:08:07.453Z,1008.68
2016-10-10T04:08:48.144Z,1008.68
2016-10-10T04:09:28.838Z,1008.68
2016-10-10T04:10:09.542Z,1008.66
2016-10-10T04:10:50.194Z,1008.66
2016-10-10T04:11:30.887Z,1008.63
2016-10-10T04:12:11.600Z,1008.58
2016-10-10T04:12:52.306Z,1008.58
2016-10-10T04:13:33.030Z,1008.63
2016-10-10T04:14:13.728Z,1008.66
2016-10-10T04:14:54.427Z,1008.63
2016-10-10T04:15:35.103Z,1008.66
2016-10-10T04:16:15.739Z,1008.67
2016-10-10T04:16:56.455Z,1008.66
2016-10-10T04:17:37.130Z,1008.63
2016-10-10T04:18:17.811Z,1008.69
2016-10-10T04:18:58.505Z,1008.72
2016-10-10T04:19:39.171Z,1008.74
2016-10-10T04:20:19.822Z,1008.74
2016-10-10T04:21:00.535Z,1008.75
2016-10-10T04:21:41.245Z,1008.76
2016-10-10T04:22:21.936Z,1008.74
2016-10-10T04:23:02.626Z,1008.76
2016-10-10T04:23:43.351Z,1008.77
2016-10-10T04:24:24.037Z,1008.77
2016-10-10T04:25:04.706Z,1008.77
2016-10-10T04:25:45.429Z,1008.76
2016-10-10T04:26:26.093Z,1008.79
2016-10-10T04:27:06.798Z,1008.75
2016-10-10T04:27:47.473Z,1008.72
2016-10-10T04:28:28.110Z,1008.77
2016-10-10T04:29:08.825Z,1008.75
2016-10-10T04:29:49.536Z,1008.75
2016-10-10T04:30:30.215Z,1008.76
2016-10-10T04:31:10.894Z,1008.72
2016-10-10T04:31:51.606Z,1008.74
2016-10-10T04:32:32.303Z,1008.75
2016-10-10T04:33:13.027Z,1008.79
2016-10-10T04:33:53.718Z,1008.76
2016-10-10T04:34:34.388Z,1008.76
2016-10-10T04:35:15.096Z,1008.77
2016-10-10T04:35:55.774Z,1008.77
2016-10-10T04:36:36.478Z,1008.81
2016-10-10T04:37:17.131Z,1008.84
2016-10-10T04:37:57.816Z,1008.82
2016-10-10T04:38:38.459Z,1008.81
2016-10-10T04:39:19.165Z,1008.85
2016-10-10T04:39:59.832Z,1008.85
2016-10-10T04:40:40.497Z,1008.85
2016-10-10T04:41:21.189Z,1008.84
2016-10-10T04:42:01.842Z,1008.87
2016-10-10T04:42:42.502Z,1008.86
2016-10-10T04:43:23.180Z,1008.92
2016-10-10T04:44:03.882Z,1008.89
2016-10-10T04:44:44.561Z,1008.89
2016-10-10T04:45:25.264Z,1008.91
2016-10-10T04:46:05.944Z,1008.97
2016-10-10T04:46:46.634Z,1009
2016-10-10T04:47:27.293Z,1008.96
2016-10-10T04:48:08.042Z,1008.96
2016-10-10T04:48:48.746Z,1008.98
2016-10-10T04:49:29.432Z,1009
2016-10-10T04:50:10.136Z,1008.95
2016-10-10T04:50:50.854Z,1008.95
2016-10-10T04:51:31.516Z,1008.98
2016-10-10T04:52:12.220Z,1008.94
2016-10-10T04:52:52.880Z,1008.97
2016-10-10T04:53:33.589Z,1008.94
2016-10-10T04:54:14.330Z,1008.93
2016-10-10T04:54:55.040Z,1008.95
2016-10-10T04:55:35.750Z,1008.94
2016-10-10T04:56:16.472Z,1008.93
2016-10-10T04:56:57.185Z,1008.96
2016-10-10T04:57:37.872Z,1008.97
2016-10-10T04:58:18.587Z,1008.94
2016-10-10T04:58:59.272Z,1008.96
2016-10-10T04:59:39.971Z,1008.99
2016-10-10T05:00:20.702Z,1008.95
2016-10-10T05:01:01.383Z,1008.96
2016-10-10T05:01:42.071Z,1008.97
2016-10-10T05:02:22.790Z,1008.96
2016-10-10T05:03:03.457Z,1008.9
2016-10-10T05:03:44.180Z,1008.9
2016-10-10T05:04:24.827Z,1008.93
2016-10-10T05:05:05.551Z,1008.87
2016-10-10T05:05:46.205Z,1008.88
2016-10-10T05:06:26.926Z,1008.87
2016-10-10T05:07:07.640Z,1008.91
2016-10-10T05:07:48.335Z,1008.88
2016-10-10T05:08:28.968Z,1008.92
2016-10-10T05:09:09.654Z,1008.91
2016-10-10T05:09:50.309Z,1008.95
2016-10-10T05:10:30.986Z,1008.94
2016-10-10T05:11:11.736Z,1008.89
2016-10-10T05:11:52.461Z,1008.91
2016-10-10T05:12:33.158Z,1008.92
2016-10-10T05:13:13.787Z,1008.89
2016-10-10T05:13:54.500Z,1008.89
2016-10-10T05:14:35.174Z,1008.91
2016-10-10T05:15:15.827Z,1008.89
2016-10-10T05:15:56.512Z,1008.9
2016-10-10T05:16:37.246Z,1008.92
2016-10-10T05:17:17.875Z,1008.87
2016-10-10T05:17:58.543Z,1008.92
2016-10-10T05:18:39.289Z,1008.89
2016-10-10T05:19:19.982Z,1008.88
2016-10-10T05:20:00.718Z,1008.83
2016-10-10T05:20:41.361Z,1008.86
2016-10-10T05:21:22.041Z,1008.89
2016-10-10T05:22:02.710Z,1008.85
2016-10-10T05:22:43.380Z,1008.85
2016-10-10T05:23:24.113Z,1008.87
2016-10-10T05:24:04.737Z,1008.9
2016-10-10T05:24:45.374Z,1008.89
2016-10-10T05:25:26.087Z,1008.9
2016-10-10T05:26:06.763Z,1008.91
2016-10-10T05:26:47.455Z,1008.88
2016-10-10T05:27:28.139Z,1008.89
2016-10-10T05:28:08.838Z,1008.9
2016-10-10T05:28:49.566Z,1008.88
2016-10-10T05:29:30.246Z,1008.87
2016-10-10T05:30:10.925Z,1008.88
2016-10-10T05:30:51.631Z,1008.9
2016-10-10T05:31:32.314Z,1008.87
2016-10-10T05:32:12.990Z,1008.92
2016-10-10T05:32:53.681Z,1008.88
2016-10-10T05:33:34.371Z,1008.87
2016-10-10T05:34:15.076Z,1008.92
2016-10-10T05:34:55.754Z,1008.9
2016-10-10T05:35:36.416Z,1008.89
2016-10-10T05:36:17.114Z,1008.91
2016-10-10T05:36:57.820Z,1008.88
2016-10-10T05:37:38.516Z,1008.87
2016-10-10T05:38:19.191Z,1008.89
2016-10-10T05:38:59.863Z,1008.93
2016-10-10T05:39:40.538Z,1008.91
2016-10-10T05:40:21.268Z,1008.92
2016-10-10T05:41:01.898Z,1008.94
2016-10-10T05:41:42.595Z,1008.86
2016-10-10T05:42:23.296Z,1008.88
2016-10-10T05:43:03.960Z,1008.88
2016-10-10T05:43:44.696Z,1008.89
2016-10-10T05:44:25.386Z,1008.94
2016-10-10T05:45:06.058Z,1008.95
2016-10-10T05:45:46.733Z,1008.94
2016-10-10T05:46:27.413Z,1008.96
2016-10-10T05:47:08.108Z,1008.99
2016-10-10T05:47:48.762Z,1008.97
2016-10-10T05:48:29.486Z,1008.99
2016-10-10T05:49:10.167Z,1009.02
2016-10-10T05:49:50.870Z,1009.05
2016-10-10T05:50:31.529Z,1009
2016-10-10T05:51:12.232Z,1009.08
2016-10-10T05:51:52.931Z,1009.08
2016-10-10T05:52:33.596Z,1009.08
2016-10-10T05:53:14.293Z,1009.09
2016-10-10T05:53:54.979Z,1009.1
2016-10-10T05:54:35.680Z,1009.13
2016-10-10T05:55:16.355Z,1009.13
2016-10-10T05:55:57.067Z,1009.11
2016-10-10T05:56:37.789Z,1009.15
2016-10-10T05:57:18.490Z,1009.15
2016-10-10T05:59:37.103Z,1009.1
2016-10-10T06:00:17.790Z,1009.1
2016-10-10T06:00:58.443Z,1009.13
2016-10-10T06:01:39.130Z,1009.09
2016-10-10T06:02:19.837Z,1009.13
2016-10-10T06:03:00.511Z,1009.11
2016-10-10T06:03:41.245Z,1009.1
2016-10-10T06:04:21.959Z,1009.12
2016-10-10T06:05:02.676Z,1009.13
2016-10-10T06:05:43.296Z,1009.14
2016-10-10T06:06:23.987Z,1009.11
2016-10-10T06:07:04.727Z,1009.13
2016-10-10T06:07:45.441Z,1009.18
2016-10-10T06:08:26.107Z,1009.15
2016-10-10T06:09:06.803Z,1009.14
2016-10-10T06:09:47.519Z,1009.11
2016-10-10T06:10:28.267Z,1009.15
2016-10-10T06:11:08.970Z,1009.14
2016-10-10T06:11:49.690Z,1009.15
2016-10-10T06:12:30.356Z,1009.11
2016-10-10T06:13:11.005Z,1009.12
2016-10-10T06:13:51.761Z,1009.12
2016-10-10T06:14:32.464Z,1009.11
2016-10-10T06:15:13.177Z,1009.09
2016-10-10T06:15:53.826Z,1009.1
2016-10-10T06:16:34.541Z,1009.08
2016-10-10T06:17:15.268Z,1009.09
2016-10-10T06:17:55.938Z,1009.08
2016-10-10T06:18:36.606Z,1009.1
2016-10-10T06:19:17.315Z,1009.08
2016-10-10T06:19:57.956Z,1009.13
2016-10-10T06:20:38.633Z,1009.14
2016-10-10T06:21:19.298Z,1009.12
2016-10-10T06:22:00.003Z,1009.13
2016-10-10T06:22:40.686Z,1009.12
2016-10-10T06:23:21.387Z,1009.15
2016-10-10T06:24:02.092Z,1009.13
2016-10-10T06:24:42.784Z,1009.12
2016-10-10T06:25:23.461Z,1009.16
2016-10-10T06:26:04.171Z,1009.14
2016-10-10T06:26:44.887Z,1009.15
2016-10-10T06:27:25.651Z,1009.16
2016-10-10T06:28:06.455Z,1009.16
2016-10-10T06:28:47.172Z,1009.17
2016-10-10T06:29:27.874Z,1009.16
2016-10-10T06:30:08.597Z,1009.19
2016-10-10T06:30:49.248Z,1009.23
2016-10-10T06:31:29.945Z,1009.25
2016-10-10T06:32:10.677Z,1009.24
2016-10-10T06:32:51.385Z,1009.26
2016-10-10T06:33:32.091Z,1009.26
2016-10-10T06:34:12.801Z,1009.23
2016-10-10T06:34:53.456Z,1009.26
2016-10-10T06:35:34.204Z,1009.27
2016-10-10T06:36:14.909Z,1009.24
2016-10-10T06:36:55.667Z,1009.26
2016-10-10T06:37:36.370Z,1009.26
2016-10-10T06:38:16.999Z,1009.27
2016-10-10T06:38:57.730Z,1009.26
2016-10-10T06:39:38.425Z,1009.25
2016-10-10T06:40:19.145Z,1009.25
2016-10-10T06:40:59.835Z,1009.28
2016-10-10T06:41:40.479Z,1009.26
2016-10-10T06:42:21.167Z,1009.28
2016-10-10T06:43:01.833Z,1009.27
2016-10-10T06:43:42.507Z,1009.28
2016-10-10T06:44:23.195Z,1009.28
2016-10-10T06:45:03.935Z,1009.31
2016-10-10T06:45:44.613Z,1009.28
2016-10-10T06:46:25.334Z,1009.26
2016-10-10T06:47:06.035Z,1009.33
2016-10-10T06:47:46.701Z,1009.27
2016-10-10T06:48:27.380Z,1009.29
2016-10-10T06:49:08.018Z,1009.31
2016-10-10T06:49:48.696Z,1009.28
2016-10-10T06:50:29.989Z,1009.31
2016-10-10T06:51:10.164Z,1009.33
2016-10-10T06:51:50.865Z,1009.28
2016-10-10T06:52:31.597Z,1009.31
2016-10-10T06:53:12.318Z,1009.29
2016-10-10T06:53:53.021Z,1009.32
2016-10-10T06:54:33.758Z,1009.32
2016-10-10T06:55:14.504Z,1009.35
2016-10-10T06:55:55.290Z,1009.34
2016-10-10T06:56:36.885Z,1009.38
2016-10-10T06:57:17.598Z,1009.36
2016-10-10T06:57:58.329Z,1009.39
2016-10-10T06:58:39.075Z,1009.37
2016-10-10T06:59:19.806Z,1009.37
2016-10-10T07:00:00.532Z,1009.41
2016-10-10T07:00:41.232Z,1009.4
2016-10-10T07:01:22.007Z,1009.38
2016-10-10T07:02:02.709Z,1009.38
2016-10-10T07:02:43.456Z,1009.37
2016-10-10T07:03:24.179Z,1009.35
2016-10-10T07:04:04.911Z,1009.37
2016-10-10T07:04:45.682Z,1009.41
2016-10-10T07:05:26.448Z,1009.41
2016-10-10T07:06:07.211Z,1009.43
2016-10-10T07:06:47.977Z,1009.48
2016-10-10T07:07:28.755Z,1009.47
2016-10-10T07:08:09.448Z,1009.45
2016-10-10T07:08:50.245Z,1009.49
2016-10-10T07:09:30.977Z,1009.51
2016-10-10T07:10:11.738Z,1009.51
2016-10-10T07:10:52.468Z,1009.52
2016-10-10T07:11:33.215Z,1009.52
2016-10-10T07:12:13.939Z,1009.54
2016-10-10T07:12:54.687Z,1009.53
2016-10-10T07:13:35.469Z,1009.55
2016-10-10T07:14:16.227Z,1009.58
2016-10-10T07:14:56.971Z,1009.57
2016-10-10T07:15:37.688Z,1009.53
2016-10-10T07:16:18.446Z,1009.56
2016-10-10T07:16:59.221Z,1009.55
2016-10-10T07:17:39.983Z,1009.55
2016-10-10T07:18:20.757Z,1009.53
2016-10-10T07:19:01.565Z,1009.56
2016-10-10T07:19:42.314Z,1009.53
2016-10-10T07:20:23.106Z,1009.55
2016-10-10T07:21:03.866Z,1009.52
2016-10-10T07:21:44.620Z,1009.6
2016-10-10T07:22:25.347Z,1009.54
2016-10-10T07:23:06.088Z,1009.55
2016-10-10T07:23:46.865Z,1009.56
2016-10-10T07:24:27.599Z,1009.59
2016-10-10T07:25:08.391Z,1009.59
2016-10-10T07:25:49.168Z,1009.6
2016-10-10T07:26:29.976Z,1009.64
2016-10-10T07:27:10.742Z,1009.64
2016-10-10T07:27:51.512Z,1009.62
2016-10-10T07:28:32.291Z,1009.66
2016-10-10T07:29:13.038Z,1009.64
2016-10-10T07:29:53.801Z,1009.65
2016-10-10T07:30:34.549Z,1009.66
2016-10-10T07:31:16.113Z,1009.67
2016-10-10T07:31:56.870Z,1009.68
2016-10-10T07:32:37.629Z,1009.67
2016-10-10T07:33:18.417Z,1009.66
2016-10-10T07:33:59.170Z,1009.69
2016-10-10T07:34:39.951Z,1009.66
2016-10-10T07:35:20.692Z,1009.69
2016-10-10T07:36:01.460Z,1009.68
2016-10-10T07:36:42.270Z,1009.69
2016-10-10T07:37:23.023Z,1009.69
2016-10-10T07:38:03.840Z,1009.7
2016-10-10T07:38:44.567Z,1009.68
2016-10-10T07:39:25.349Z,1009.67
2016-10-10T07:40:06.158Z,1009.68
2016-10-10T07:40:46.962Z,1009.71
2016-10-10T07:41:27.803Z,1009.73
2016-10-10T07:42:08.547Z,1009.72
2016-10-10T07:42:49.315Z,1009.77
2016-10-10T07:43:31.507Z,1009.73
2016-10-10T07:44:11.785Z,1009.75
2016-10-10T07:44:52.524Z,1009.8
2016-10-10T07:45:33.417Z,1009.81
2016-10-10T07:46:14.170Z,1009.8
2016-10-10T07:46:54.931Z,1009.78
2016-10-10T07:47:35.779Z,1009.79
2016-10-10T07:48:16.554Z,1009.77
2016-10-10T07:48:57.380Z,1009.8
2016-10-10T07:49:38.155Z,1009.77
2016-10-10T07:50:18.888Z,1009.82
2016-10-10T07:50:59.700Z,1009.76
2016-10-10T07:51:40.507Z,1009.79
2016-10-10T07:52:21.276Z,1009.8
2016-10-10T07:53:02.078Z,1009.8
2016-10-10T07:53:42.816Z,1009.75
2016-10-10T07:54:23.671Z,1009.81
2016-10-10T07:55:04.452Z,1009.75
2016-10-10T07:55:45.257Z,1009.75
2016-10-10T07:56:25.996Z,1009.79
2016-10-10T07:57:06.795Z,1009.81
2016-10-10T07:57:47.531Z,1009.79
2016-10-10T07:58:28.269Z,1009.78
2016-10-10T07:59:09.052Z,1009.77
2016-10-10T07:59:49.785Z,1009.81
2016-10-10T08:00:30.509Z,1009.8
2016-10-10T08:01:11.286Z,1009.8
2016-10-10T08:01:52.034Z,1009.8
2016-10-10T08:02:32.782Z,1009.81
2016-10-10T08:03:13.581Z,1009.82
2016-10-10T08:03:54.368Z,1009.81
2016-10-10T08:04:35.173Z,1009.82
2016-10-10T08:05:15.970Z,1009.83
2016-10-10T08:05:56.741Z,1009.84
2016-10-10T08:06:37.515Z,1009.81
2016-10-10T08:07:18.272Z,1009.81
2016-10-10T08:07:59.040Z,1009.82
2016-10-10T08:08:39.835Z,1009.82
2016-10-10T08:09:20.624Z,1009.82
2016-10-10T08:10:01.436Z,1009.81
2016-10-10T08:10:42.182Z,1009.79
2016-10-10T08:11:22.937Z,1009.79
2016-10-10T08:12:03.723Z,1009.84
2016-10-10T08:12:44.469Z,1009.8
2016-10-10T08:13:25.251Z,1009.83
2016-10-10T08:14:06.058Z,1009.8
2016-10-10T08:14:46.848Z,1009.81
2016-10-10T08:15:27.656Z,1009.85